createdAt,value
2022-08-28T00:00:49.148Z,48.91
2022-08-28T00:01:53.402Z,49.26
2022-08-28T00:02:58.012Z,49.10
2022-08-28T00:04:06.061Z,49.10
2022-08-28T00:05:11.327Z,50.43
2022-08-28T00:06:15.497Z,50.43
2022-08-28T00:07:19.909Z,49.93
2022-08-28T00:08:24.111Z,50.46
2022-08-28T00:09:28.203Z,50.30
2022-08-28T00:10:33.370Z,50.68
2022-08-28T00:11:38.058Z,51.09
2022-08-28T00:12:42.151Z,50.73
2022-08-28T00:13:47.451Z,50.73
2022-08-28T00:14:51.520Z,50.85
2022-08-28T00:15:58.827Z,50.70
2022-08-28T00:17:03.245Z,50.41
2022-08-28T00:18:09.028Z,50.79
2022-08-28T00:19:14.094Z,51.27
2022-08-28T00:20:21.793Z,50.96
2022-08-28T00:21:25.971Z,50.96
2022-08-28T00:22:30.055Z,51.17
2022-08-28T00:23:45.068Z,51.10
2022-08-28T00:24:41.383Z,51.18
2022-08-28T00:25:45.682Z,51.25
2022-08-28T00:26:51.687Z,51.18
2022-08-28T00:27:58.849Z,51.18
2022-08-28T00:29:04.929Z,51.44
2022-08-28T00:30:09.991Z,51.00
2022-08-28T00:31:14.082Z,50.82
2022-08-28T00:32:18.312Z,50.51
2022-08-28T00:33:55.964Z,50.73
2022-08-28T00:34:33.432Z,51.08
2022-08-28T00:35:36.972Z,50.72
2022-08-28T00:36:41.279Z,51.26
2022-08-28T00:37:46.568Z,51.34
2022-08-28T00:38:52.259Z,51.19
2022-08-28T00:39:56.455Z,51.19
2022-08-28T00:41:03.651Z,51.15
2022-08-28T00:42:08.352Z,51.49
2022-08-28T00:43:31.388Z,51.49
2022-08-28T00:44:35.432Z,51.08
2022-08-28T00:45:40.311Z,50.99
2022-08-28T00:46:47.260Z,51.34
2022-08-28T00:47:51.688Z,50.99
2022-08-28T00:48:57.379Z,51.33
2022-08-28T00:50:02.888Z,51.33
2022-08-28T00:51:07.309Z,51.33
2022-08-28T00:52:12.502Z,51.71
2022-08-28T00:53:16.936Z,51.71
2022-08-28T00:54:22.037Z,51.39
2022-08-28T00:55:28.484Z,51.50
2022-08-28T00:56:34.466Z,51.22
2022-08-28T00:57:41.464Z,50.86
2022-08-28T00:58:48.358Z,50.86
2022-08-28T00:59:53.059Z,51.22
2022-08-28T01:00:57.387Z,51.11
2022-08-28T01:02:02.207Z,51.40
2022-08-28T01:03:07.340Z,51.40
2022-08-28T01:04:14.486Z,51.02
2022-08-28T01:05:21.508Z,51.02
2022-08-28T01:06:25.675Z,51.25
2022-08-28T01:07:29.921Z,51.56
2022-08-28T01:08:38.319Z,51.50
2022-08-28T01:09:47.696Z,51.00
2022-08-28T01:10:54.768Z,51.19
2022-08-28T01:12:06.078Z,51.19
2022-08-28T01:13:10.917Z,50.91
2022-08-28T01:14:17.070Z,50.91
2022-08-28T01:15:24.031Z,51.06
2022-08-28T01:16:33.804Z,50.64
2022-08-28T01:19:10.685Z,50.95
2022-08-28T01:20:19.728Z,50.96
2022-08-28T01:20:56.108Z,50.95
2022-08-28T01:21:28.477Z,51.20
2022-08-28T01:22:35.266Z,51.05
2022-08-28T01:23:57.479Z,51.05
2022-08-28T01:25:04.523Z,51.08
2022-08-28T01:26:11.004Z,50.82
2022-08-28T01:27:14.482Z,50.82
2022-08-28T01:28:18.966Z,50.93
2022-08-28T01:29:23.034Z,50.87
2022-08-28T01:30:29.660Z,50.87
2022-08-28T01:31:36.704Z,50.50
2022-08-28T01:32:47.157Z,50.77
2022-08-28T01:33:51.676Z,51.27
2022-08-28T01:34:56.995Z,50.96
2022-08-28T01:36:03.989Z,50.96
2022-08-28T01:37:08.073Z,51.44
2022-08-28T01:38:19.326Z,51.68
2022-08-28T01:39:21.490Z,51.37
2022-08-28T01:40:28.967Z,51.37
2022-08-28T01:41:33.072Z,50.55
2022-08-28T01:42:40.170Z,50.55
2022-08-28T01:43:44.615Z,51.19
2022-08-28T01:44:48.795Z,50.49
2022-08-28T01:45:56.021Z,50.58
2022-08-28T01:47:00.760Z,50.47
2022-08-28T01:48:07.067Z,50.74
2022-08-28T01:49:11.859Z,50.74
2022-08-28T01:50:19.343Z,50.87
2022-08-28T01:51:25.406Z,51.14
2022-08-28T01:52:29.216Z,51.27
2022-08-28T01:53:33.715Z,51.27
2022-08-28T01:54:38.164Z,51.97
2022-08-28T01:55:43.855Z,51.97
2022-08-28T01:56:48.030Z,52.68
2022-08-28T01:57:54.787Z,53.23
2022-08-28T01:59:00.787Z,53.04
2022-08-28T02:00:05.544Z,53.17
2022-08-28T02:01:15.296Z,53.17
2022-08-28T02:02:20.955Z,53.61
2022-08-28T02:03:25.709Z,53.71
2022-08-28T02:04:31.960Z,53.85
2022-08-28T02:05:36.858Z,54.19
2022-08-28T02:06:41.296Z,54.34
2022-08-28T02:07:45.265Z,54.43
2022-08-28T02:08:49.265Z,54.43
2022-08-28T02:09:53.253Z,55.00
2022-08-28T02:10:57.292Z,55.17
2022-08-28T02:12:01.395Z,55.57
2022-08-28T02:13:06.742Z,55.63
2022-08-28T02:14:10.862Z,55.63
2022-08-28T02:15:15.069Z,55.44
2022-08-28T02:16:21.399Z,55.44
2022-08-28T02:17:25.479Z,55.48
2022-08-28T02:18:29.804Z,55.82
2022-08-28T02:19:33.837Z,55.62
2022-08-28T02:20:38.443Z,55.62
2022-08-28T02:21:42.667Z,55.93
2022-08-28T02:22:46.794Z,56.11
2022-08-28T02:23:51.259Z,55.93
2022-08-28T02:24:55.315Z,55.93
2022-08-28T02:26:01.129Z,56.09
2022-08-28T02:27:05.950Z,56.02
2022-08-28T02:28:10.050Z,55.69
2022-08-28T02:29:14.487Z,55.69
2022-08-28T02:30:20.627Z,55.78
2022-08-28T02:31:27.733Z,55.78
2022-08-28T02:32:33.276Z,55.54
2022-08-28T02:33:52.694Z,55.54
2022-08-28T02:34:48.526Z,55.79
2022-08-28T02:35:52.778Z,55.95
2022-08-28T02:36:58.459Z,55.86
2022-08-28T02:38:02.482Z,55.62
2022-08-28T02:39:08.056Z,55.73
2022-08-28T02:40:15.620Z,56.10
2022-08-28T02:41:34.392Z,56.10
2022-08-28T02:42:29.655Z,56.32
2022-08-28T02:43:36.993Z,56.05
2022-08-28T02:44:42.473Z,57.80
2022-08-28T02:45:46.525Z,57.13
2022-08-28T02:46:52.161Z,57.13
2022-08-28T02:47:57.858Z,56.56
2022-08-28T02:49:01.896Z,56.97
2022-08-28T02:50:08.036Z,56.97
2022-08-28T02:51:13.874Z,56.83
2022-08-28T02:52:18.199Z,57.35
2022-08-28T02:53:23.762Z,57.03
2022-08-28T02:54:29.358Z,57.17
2022-08-28T02:55:34.317Z,57.17
2022-08-28T02:56:38.548Z,57.39
2022-08-28T02:57:42.915Z,57.88
2022-08-28T02:58:47.011Z,58.52
2022-08-28T02:59:52.670Z,58.57
2022-08-28T03:00:59.293Z,58.57
2022-08-28T03:02:04.523Z,59.10
2022-08-28T03:03:10.379Z,59.43
2022-08-28T03:04:14.472Z,59.59
2022-08-28T03:05:21.822Z,59.71
2022-08-28T03:06:26.206Z,59.78
2022-08-28T03:07:30.452Z,59.78
2022-08-28T03:08:34.612Z,60.29
2022-08-28T03:09:38.707Z,60.56
2022-08-28T03:10:42.843Z,60.43
2022-08-28T03:11:46.818Z,60.43
2022-08-28T03:12:50.936Z,60.32
2022-08-28T03:13:55.191Z,60.46
2022-08-28T03:14:59.452Z,60.73
2022-08-28T03:16:05.925Z,60.73
2022-08-28T03:17:09.975Z,60.87
2022-08-28T03:18:15.925Z,60.73
2022-08-28T03:19:20.265Z,60.73
2022-08-28T03:20:24.810Z,60.93
2022-08-28T03:21:30.335Z,60.87
2022-08-28T03:22:34.454Z,60.87
2022-08-28T03:23:39.568Z,61.11
2022-08-28T03:24:44.046Z,60.68
2022-08-28T03:25:48.261Z,60.87
2022-08-28T03:26:52.366Z,60.87
2022-08-28T03:27:56.901Z,60.61
2022-08-28T03:29:02.662Z,60.89
2022-08-28T03:30:08.635Z,61.07
2022-08-28T03:31:16.096Z,60.82
2022-08-28T03:32:20.142Z,60.51
2022-08-28T03:33:25.399Z,60.97
2022-08-28T03:34:29.409Z,60.97
2022-08-28T03:35:33.547Z,60.57
2022-08-28T03:36:37.611Z,60.65
2022-08-28T03:37:41.648Z,60.65
2022-08-28T03:38:45.814Z,60.66
2022-08-28T03:39:49.941Z,60.66
2022-08-28T03:40:54.702Z,60.72
2022-08-28T03:41:58.753Z,60.85
2022-08-28T03:43:02.830Z,60.71
2022-08-28T03:44:10.477Z,60.71
2022-08-28T03:45:16.214Z,60.78
2022-08-28T03:46:24.094Z,61.16
2022-08-28T03:47:28.148Z,61.16
2022-08-28T03:48:36.899Z,61.04
2022-08-28T03:49:41.039Z,60.75
2022-08-28T03:50:46.262Z,60.67
2022-08-28T03:51:51.820Z,60.91
2022-08-28T03:52:55.815Z,60.61
2022-08-28T03:54:01.427Z,60.61
2022-08-28T03:55:07.180Z,60.42
2022-08-28T03:56:19.266Z,60.50
2022-08-28T03:57:23.719Z,60.73
2022-08-28T03:59:48.851Z,60.75
2022-08-28T04:00:46.676Z,60.67
2022-08-28T04:01:46.262Z,60.75
2022-08-28T04:01:50.830Z,60.80
2022-08-28T04:02:54.879Z,60.60
2022-08-28T04:03:59.027Z,60.62
2022-08-28T04:05:03.318Z,60.53
2022-08-28T04:06:07.721Z,60.66
2022-08-28T04:07:12.244Z,60.66
2022-08-28T04:08:18.936Z,60.99
2022-08-28T04:09:22.981Z,60.61
2022-08-28T04:10:27.197Z,60.61
2022-08-28T04:11:31.506Z,60.92
2022-08-28T04:12:35.540Z,61.22
2022-08-28T04:13:39.534Z,61.20
2022-08-28T04:14:43.728Z,61.37
2022-08-28T04:15:49.299Z,61.37
2022-08-28T04:16:53.563Z,61.46
2022-08-28T04:17:59.205Z,61.24
2022-08-28T04:19:03.615Z,61.67
2022-08-28T04:20:09.427Z,61.88
2022-08-28T04:21:22.749Z,61.88
2022-08-28T04:22:26.781Z,62.21
2022-08-28T04:23:30.896Z,62.17
2022-08-28T04:24:34.922Z,62.53
2022-08-28T04:25:41.118Z,62.53
2022-08-28T04:26:45.439Z,62.19
2022-08-28T04:27:50.837Z,62.28
2022-08-28T04:28:56.118Z,61.90
2022-08-28T04:30:00.405Z,61.66
2022-08-28T04:31:05.254Z,61.66
2022-08-28T04:32:10.918Z,62.02
2022-08-28T04:33:16.426Z,61.66
2022-08-28T04:34:24.494Z,61.96
2022-08-28T04:35:29.897Z,61.69
2022-08-28T04:36:35.725Z,61.37
2022-08-28T04:37:41.911Z,61.43
2022-08-28T04:38:47.585Z,61.43
2022-08-28T04:39:54.734Z,61.49
2022-08-28T04:41:01.860Z,61.38
2022-08-28T04:42:09.398Z,61.67
2022-08-28T04:43:13.452Z,61.67
2022-08-28T04:44:19.013Z,62.02
2022-08-28T04:45:23.015Z,62.09
2022-08-28T04:46:31.002Z,61.94
2022-08-28T04:47:38.242Z,61.85
2022-08-28T04:48:46.225Z,62.32
2022-08-28T04:49:53.094Z,62.81
2022-08-28T04:50:57.304Z,62.12
2022-08-28T04:52:03.148Z,62.12
2022-08-28T04:53:07.186Z,64.00
2022-08-28T04:55:14.975Z,65.13
2022-08-28T04:55:54.615Z,64.37
2022-08-28T04:56:32.569Z,64.37
2022-08-28T04:57:47.795Z,63.44
2022-08-28T04:58:44.187Z,63.01
2022-08-28T04:59:49.226Z,63.01
2022-08-28T05:00:55.109Z,63.09
2022-08-28T05:02:01.885Z,64.06
2022-08-28T05:03:08.771Z,64.06
2022-08-28T05:04:13.369Z,64.58
2022-08-28T05:05:20.393Z,64.17
2022-08-28T05:06:31.876Z,63.85
2022-08-28T05:22:55.661Z,62.92
2022-08-28T05:23:57.766Z,63.90
2022-08-28T05:25:03.389Z,63.54
2022-08-28T05:26:19.861Z,63.54
2022-08-28T05:27:32.039Z,63.85
2022-08-28T05:28:36.243Z,64.39
2022-08-28T05:29:46.746Z,64.39
2022-08-28T05:30:48.075Z,65.36
2022-08-28T05:31:52.126Z,65.67
2022-08-28T05:32:56.350Z,64.56
2022-08-28T05:34:02.157Z,64.56
2022-08-28T05:35:06.635Z,65.14
2022-08-28T05:36:13.031Z,65.38
2022-08-28T05:37:19.689Z,65.38
2022-08-28T05:38:22.815Z,65.35
2022-08-28T05:39:26.906Z,65.35
2022-08-28T05:40:32.468Z,65.91
2022-08-28T05:41:37.817Z,65.74
2022-08-28T05:42:41.807Z,64.90
2022-08-28T05:43:45.807Z,65.31
2022-08-28T05:44:50.258Z,65.74
2022-08-28T05:46:04.932Z,65.66
2022-08-28T05:47:10.129Z,65.86
2022-08-28T05:48:14.257Z,65.86
2022-08-28T05:49:19.273Z,65.68
2022-08-28T05:50:25.232Z,65.87
2022-08-28T05:51:34.353Z,65.49
2022-08-28T05:52:36.995Z,65.49
2022-08-28T05:53:53.927Z,64.38
2022-08-28T05:54:52.273Z,64.38
2022-08-28T05:56:00.518Z,64.01
2022-08-28T05:57:04.938Z,64.58
2022-08-28T05:58:09.041Z,64.08
2022-08-28T05:59:15.514Z,63.99
2022-08-28T06:00:21.120Z,63.70
2022-08-28T06:01:28.195Z,63.66
2022-08-28T06:02:32.511Z,63.58
2022-08-28T06:03:40.063Z,63.83
2022-08-28T06:04:44.218Z,63.58
2022-08-28T06:05:56.141Z,63.18
2022-08-28T06:07:00.137Z,63.17
2022-08-28T06:08:04.346Z,63.17
2022-08-28T06:09:17.536Z,62.55
2022-08-28T06:10:23.136Z,62.55
2022-08-28T06:11:30.507Z,62.11
2022-08-28T06:12:35.320Z,62.00
2022-08-28T06:13:39.314Z,62.00
2022-08-28T06:14:43.447Z,61.83
2022-08-28T06:15:49.375Z,62.21
2022-08-28T06:16:55.978Z,62.06
2022-08-28T06:18:01.075Z,62.77
2022-08-28T06:19:05.617Z,62.77
2022-08-28T06:20:10.490Z,63.01
2022-08-28T06:21:14.837Z,63.01
2022-08-28T06:22:18.834Z,63.24
2022-08-28T06:23:24.701Z,62.32
2022-08-28T06:24:30.023Z,62.39
2022-08-28T06:25:45.703Z,62.13
2022-08-28T06:26:49.952Z,62.13
2022-08-28T06:27:53.975Z,61.75
2022-08-28T06:29:03.997Z,61.96
2022-08-28T06:30:09.300Z,62.13
2022-08-28T06:31:23.305Z,62.18
2022-08-28T06:32:19.363Z,61.78
2022-08-28T06:33:24.504Z,61.95
2022-08-28T06:34:33.912Z,61.95
2022-08-28T06:35:42.803Z,62.26
2022-08-28T06:36:50.603Z,60.82
2022-08-28T06:37:52.827Z,60.82
2022-08-28T06:39:02.359Z,60.55
2022-08-28T06:40:05.720Z,61.32
2022-08-28T06:41:09.814Z,61.88
2022-08-28T06:42:15.363Z,60.34
2022-08-28T06:43:21.761Z,59.44
2022-08-28T06:44:27.445Z,59.44
2022-08-28T06:45:33.135Z,58.49
2022-08-28T06:46:38.056Z,58.74
2022-08-28T06:47:43.045Z,59.06
2022-08-28T06:48:47.068Z,59.49
2022-08-28T06:49:51.170Z,59.69
2022-08-28T06:50:57.567Z,59.35
2022-08-28T06:52:01.738Z,58.90
2022-08-28T06:53:06.571Z,58.90
2022-08-28T06:54:11.783Z,58.90
2022-08-28T06:55:15.853Z,58.58
2022-08-28T06:56:25.927Z,58.58
2022-08-28T06:57:28.544Z,58.33
2022-08-28T06:58:33.047Z,57.81
2022-08-28T06:59:37.075Z,57.77
2022-08-28T07:00:42.172Z,57.95
2022-08-28T07:01:46.323Z,56.21
2022-08-28T07:02:51.947Z,56.76
2022-08-28T07:04:01.599Z,56.76
2022-08-28T07:05:06.175Z,56.61
2022-08-28T07:06:12.901Z,56.72
2022-08-28T07:07:31.564Z,55.74
2022-08-28T07:08:26.314Z,54.51
2022-08-28T07:09:30.290Z,56.14
2022-08-28T07:10:35.847Z,55.42
2022-08-28T07:11:42.956Z,54.90
2022-08-28T07:12:48.446Z,54.78
2022-08-28T07:13:53.158Z,54.78
2022-08-28T07:15:00.536Z,54.38
2022-08-28T07:16:04.822Z,54.00
2022-08-28T07:17:09.059Z,53.70
2022-08-28T07:18:13.422Z,53.70
2022-08-28T07:19:17.712Z,53.72
2022-08-28T07:20:22.856Z,53.71
2022-08-28T07:21:27.666Z,53.28
2022-08-28T07:22:34.719Z,53.28
2022-08-28T07:23:39.747Z,53.07
2022-08-28T07:24:45.302Z,52.37
2022-08-28T07:25:49.265Z,52.19
2022-08-28T07:26:53.596Z,52.19
2022-08-28T07:27:57.715Z,51.58
2022-08-28T07:29:09.852Z,51.59
2022-08-28T07:30:09.768Z,51.59
2022-08-28T07:31:19.815Z,51.37
2022-08-28T07:32:24.352Z,50.63
2022-08-28T07:33:29.934Z,51.38
2022-08-28T07:34:39.498Z,51.48
2022-08-28T07:35:44.344Z,51.48
2022-08-28T07:36:49.408Z,50.72
2022-08-28T07:37:53.463Z,50.20
2022-08-28T07:38:59.302Z,49.71
2022-08-28T07:40:03.800Z,49.59
2022-08-28T07:41:26.823Z,49.59
2022-08-28T07:42:35.557Z,49.58
2022-08-28T07:43:38.093Z,50.39
2022-08-28T07:44:42.115Z,49.73
2022-08-28T07:45:46.290Z,49.73
2022-08-28T07:46:58.203Z,49.71
2022-08-28T07:48:08.480Z,49.89
2022-08-28T07:49:14.075Z,50.03
2022-08-28T07:50:19.865Z,48.85
2022-08-28T07:51:28.329Z,48.57
2022-08-28T07:52:32.406Z,48.57
2022-08-28T07:53:36.897Z,48.31
2022-08-28T07:54:40.976Z,48.07
2022-08-28T07:55:45.147Z,48.07
2022-08-28T07:56:49.309Z,48.17
2022-08-28T07:57:54.840Z,47.51
2022-08-28T07:59:01.343Z,47.88
2022-08-28T08:00:07.260Z,47.76
2022-08-28T08:01:11.348Z,47.76
2022-08-28T08:02:16.660Z,47.46
2022-08-28T08:03:24.022Z,47.46
2022-08-28T08:04:28.026Z,47.25
2022-08-28T08:05:32.114Z,47.57
2022-08-28T08:06:37.745Z,47.31
2022-08-28T08:07:41.961Z,47.64
2022-08-28T08:08:47.457Z,47.52
2022-08-28T08:09:51.446Z,47.51
2022-08-28T08:11:04.082Z,47.32
2022-08-28T08:12:12.530Z,46.58
2022-08-28T08:13:16.633Z,47.11
2022-08-28T08:14:21.259Z,47.11
2022-08-28T08:15:32.020Z,46.93
2022-08-28T08:16:36.041Z,46.93
2022-08-28T08:17:40.188Z,46.60
2022-08-28T08:18:48.332Z,46.57
2022-08-28T08:22:19.934Z,46.48
2022-08-28T08:23:24.153Z,45.74
2022-08-28T08:24:28.955Z,45.81
2022-08-28T08:25:33.569Z,45.85
2022-08-28T08:26:39.005Z,45.69
2022-08-28T08:27:43.279Z,45.92
2022-08-28T08:28:49.090Z,46.03
2022-08-28T08:29:53.028Z,46.03
2022-08-28T08:31:14.655Z,45.01
2022-08-28T08:32:18.774Z,45.58
2022-08-28T08:33:22.809Z,45.06
2022-08-28T08:34:28.407Z,45.06
2022-08-28T08:35:35.196Z,45.69
2022-08-28T08:36:43.559Z,45.69
2022-08-28T08:37:49.232Z,45.12
2022-08-28T08:38:59.856Z,44.98
2022-08-28T08:40:08.728Z,44.33
2022-08-28T08:41:14.635Z,44.73
2022-08-28T08:42:29.096Z,44.33
2022-08-28T08:43:36.270Z,44.66
2022-08-28T08:44:44.856Z,43.83
2022-08-28T08:46:01.611Z,43.83
2022-08-28T08:47:20.361Z,43.78
2022-08-28T08:48:35.591Z,43.78
2022-08-28T08:49:48.617Z,43.53
2022-08-28T08:50:53.027Z,42.67
2022-08-28T08:52:08.521Z,42.62
2022-08-28T08:53:34.934Z,42.62
2022-08-28T08:54:44.032Z,43.00
2022-08-28T08:55:53.671Z,41.79
2022-08-28T08:57:02.568Z,41.79
2022-08-28T08:58:09.602Z,41.38
2022-08-28T08:59:22.202Z,41.50
2022-08-28T09:00:26.322Z,41.50
2022-08-28T09:01:51.534Z,42.37
2022-08-28T09:03:08.969Z,41.46
2022-08-28T09:05:20.449Z,42.02
2022-08-28T09:06:08.100Z,40.42
2022-08-28T09:07:15.150Z,40.09
2022-08-28T09:08:44.275Z,39.70
2022-08-28T09:09:55.161Z,40.06
2022-08-28T09:11:16.425Z,40.06
2022-08-28T09:12:33.745Z,39.90
2022-08-28T09:13:49.112Z,39.21
2022-08-28T09:15:02.314Z,39.21
2022-08-28T09:18:38.670Z,40.38
2022-08-28T09:19:55.301Z,39.70
2022-08-28T09:20:33.559Z,39.70
2022-08-28T09:21:46.521Z,39.76
2022-08-28T09:23:12.753Z,39.76
2022-08-28T09:24:14.034Z,39.40
2022-08-28T09:25:12.665Z,38.90
2022-08-28T09:26:25.951Z,38.83
2022-08-28T09:27:33.019Z,39.20
2022-08-28T09:28:41.726Z,40.04
2022-08-28T09:29:48.701Z,39.01
2022-08-28T09:31:03.586Z,39.01
2022-08-28T09:32:31.513Z,39.61
2022-08-28T09:33:44.244Z,39.80
2022-08-28T09:35:04.813Z,39.30
2022-08-28T09:36:26.867Z,38.26
2022-08-28T09:37:32.847Z,38.68
2022-08-28T09:38:38.485Z,38.68
2022-08-28T09:39:46.657Z,37.94
2022-08-28T09:40:50.517Z,37.94
2022-08-28T09:42:06.726Z,38.01
2022-08-28T09:43:20.052Z,39.11
2022-08-28T09:44:24.091Z,39.11
2022-08-28T09:45:32.347Z,39.32
2022-08-28T09:46:38.246Z,40.23
2022-08-28T09:47:58.788Z,40.23
2022-08-28T09:49:11.680Z,40.34
2022-08-28T09:50:25.800Z,38.93
2022-08-28T09:51:30.585Z,38.93
2022-08-28T09:52:36.899Z,38.94
2022-08-28T09:53:58.626Z,38.40
2022-08-28T09:55:06.248Z,39.00
2022-08-28T09:56:22.968Z,39.00
2022-08-28T09:57:37.181Z,37.78
2022-08-28T09:58:46.541Z,37.46
2022-08-28T09:59:57.152Z,37.56
2022-08-28T10:01:05.052Z,37.56
2022-08-28T10:02:13.872Z,36.67
2022-08-28T10:03:24.273Z,36.61
2022-08-28T10:04:34.096Z,36.42
2022-08-28T10:05:41.570Z,34.14
2022-08-28T10:07:00.796Z,34.58
2022-08-28T10:08:09.614Z,34.58
2022-08-28T10:09:32.475Z,35.45
2022-08-28T10:11:04.450Z,35.76
2022-08-28T10:12:21.776Z,35.69
2022-08-28T10:13:42.164Z,35.69
2022-08-28T10:15:04.177Z,36.40
2022-08-28T10:16:35.220Z,37.03
2022-08-28T10:18:07.341Z,37.03
2022-08-28T10:19:26.117Z,36.42
2022-08-28T10:20:52.654Z,37.26
2022-08-28T10:22:13.328Z,38.06
2022-08-28T10:23:18.048Z,37.59
2022-08-28T10:24:39.663Z,37.59
2022-08-28T10:26:03.435Z,37.24
2022-08-28T10:27:30.800Z,37.17
2022-08-28T10:28:54.668Z,36.89
2022-08-28T10:30:12.503Z,36.34
2022-08-28T10:31:40.364Z,36.34
2022-08-28T10:32:49.971Z,35.40
2022-08-28T10:34:09.407Z,36.21
2022-08-28T10:35:19.340Z,36.21
2022-08-28T10:36:33.949Z,35.55
2022-08-28T10:37:41.312Z,35.32
2022-08-28T10:38:53.162Z,35.32
2022-08-28T10:40:00.707Z,34.50
2022-08-28T10:41:09.065Z,34.50
2022-08-28T10:42:14.743Z,34.77
2022-08-28T10:43:27.684Z,34.77
2022-08-28T10:44:37.655Z,33.72
2022-08-28T10:45:43.200Z,33.03
2022-08-28T10:46:52.733Z,33.28
2022-08-28T10:47:59.755Z,34.21
2022-08-28T10:49:08.134Z,33.28
2022-08-28T10:50:30.364Z,34.13
2022-08-28T10:51:44.459Z,34.13
2022-08-28T10:53:12.543Z,32.36
2022-08-28T10:54:22.717Z,32.97
2022-08-28T10:55:50.645Z,32.97
2022-08-28T10:56:58.433Z,32.42
2022-08-28T10:58:24.565Z,31.58
2022-08-28T10:59:27.646Z,31.18
2022-08-28T11:00:26.657Z,31.18
2022-08-28T11:01:33.700Z,31.16
2022-08-28T11:02:39.871Z,31.16
2022-08-28T11:03:46.998Z,30.44
2022-08-28T11:04:55.353Z,30.19
2022-08-28T11:06:02.351Z,30.71
2022-08-28T11:07:09.430Z,30.71
2022-08-28T11:08:29.491Z,31.10
2022-08-28T11:09:40.997Z,30.78
2022-08-28T11:10:50.871Z,31.00
2022-08-28T11:12:05.417Z,31.00
2022-08-28T11:13:28.569Z,31.24
2022-08-28T11:14:48.376Z,30.58
2022-08-28T11:15:51.556Z,30.77
2022-08-28T11:17:04.514Z,30.77
2022-08-28T11:18:12.475Z,30.84
2022-08-28T11:19:25.494Z,30.84
2022-08-28T11:20:31.962Z,31.08
2022-08-28T11:21:54.503Z,30.91
2022-08-28T11:23:02.555Z,31.40
2022-08-28T11:24:23.000Z,30.38
2022-08-28T11:25:32.879Z,30.42
2022-08-28T11:26:39.907Z,30.42
2022-08-28T11:28:14.184Z,30.29
2022-08-28T11:29:55.737Z,31.24
2022-08-28T11:31:03.256Z,31.01
2022-08-28T11:32:35.504Z,30.71
2022-08-28T11:33:42.230Z,30.71
2022-08-28T11:35:08.705Z,31.48
2022-08-28T11:36:23.008Z,30.36
2022-08-28T11:37:35.906Z,30.58
2022-08-28T11:38:45.944Z,30.58
2022-08-28T11:39:51.316Z,30.58
2022-08-28T11:40:57.271Z,30.68
2022-08-28T11:42:13.711Z,30.19
2022-08-28T11:43:20.721Z,30.13
2022-08-28T11:44:28.040Z,30.84
2022-08-28T11:45:48.332Z,30.84
2022-08-28T11:46:54.309Z,30.43
2022-08-28T11:48:00.027Z,30.43
2022-08-28T11:49:07.466Z,30.90
2022-08-28T11:50:24.117Z,31.20
2022-08-28T11:51:48.372Z,30.96
2022-08-28T11:53:17.889Z,30.60
2022-08-28T11:54:24.889Z,30.29
2022-08-28T11:55:34.462Z,30.29
2022-08-28T11:57:01.079Z,30.01
2022-08-28T11:59:13.886Z,29.77
2022-08-28T12:00:30.381Z,29.66
2022-08-28T12:01:35.661Z,29.66
2022-08-28T12:02:43.059Z,29.88
2022-08-28T12:04:08.074Z,29.52
2022-08-28T12:05:14.286Z,29.69
2022-08-28T12:06:39.188Z,29.69
2022-08-28T12:07:46.603Z,29.98
2022-08-28T12:09:03.312Z,29.84
2022-08-28T12:10:28.196Z,30.17
2022-08-28T12:11:44.024Z,30.68
2022-08-28T12:12:50.967Z,29.63
2022-08-28T12:13:55.003Z,30.20
2022-08-28T12:15:03.195Z,30.09
2022-08-28T12:16:26.297Z,30.09
2022-08-28T12:18:11.768Z,30.59
2022-08-28T12:18:46.078Z,31.81
2022-08-28T12:20:14.058Z,33.45
2022-08-28T12:21:25.766Z,33.45
2022-08-28T12:24:23.120Z,34.40
2022-08-28T12:25:35.645Z,34.40
2022-08-28T12:26:44.194Z,34.81
2022-08-28T12:27:48.434Z,34.81
2022-08-28T12:29:11.634Z,34.75
2022-08-28T12:30:20.229Z,35.26
2022-08-28T12:31:43.504Z,35.26
2022-08-28T12:32:50.525Z,35.50
2022-08-28T12:34:00.540Z,36.48
2022-08-28T12:35:11.757Z,34.97
2022-08-28T12:36:18.613Z,34.97
2022-08-28T12:37:39.873Z,33.65
2022-08-28T12:38:42.313Z,33.65
2022-08-28T12:39:46.397Z,33.40
2022-08-28T12:40:52.737Z,34.68
2022-08-28T12:41:59.513Z,34.57
2022-08-28T12:43:09.268Z,35.88
2022-08-28T12:44:15.032Z,35.78
2022-08-28T12:45:29.376Z,35.78
2022-08-28T12:46:45.143Z,36.45
2022-08-28T12:47:55.607Z,36.45
2022-08-28T12:49:17.275Z,36.43
2022-08-28T12:50:28.189Z,37.03
2022-08-28T12:51:42.962Z,36.96
2022-08-28T12:53:41.614Z,34.81
2022-08-28T12:54:04.291Z,36.02
2022-08-28T12:55:10.056Z,35.38
2022-08-28T12:56:20.211Z,35.38
2022-08-28T12:57:25.043Z,35.52
2022-08-28T12:58:35.162Z,36.27
2022-08-28T12:59:42.124Z,37.35
2022-08-28T13:00:56.882Z,37.57
2022-08-28T13:02:06.739Z,37.51
2022-08-28T13:03:10.885Z,37.57
2022-08-28T13:04:31.097Z,37.93
2022-08-28T13:05:38.118Z,37.93
2022-08-28T13:06:42.313Z,38.74
2022-08-28T13:07:52.595Z,38.76
2022-08-28T13:09:06.781Z,38.52
2022-08-28T13:10:27.247Z,37.93
2022-08-28T13:11:34.226Z,37.93
2022-08-28T13:12:56.312Z,38.63
2022-08-28T13:15:09.383Z,38.81
2022-08-28T13:16:05.693Z,39.36
2022-08-28T13:17:13.654Z,40.12
2022-08-28T13:18:38.442Z,40.12
2022-08-28T13:19:42.636Z,40.11
2022-08-28T13:20:25.581Z,38.81
2022-08-28T13:20:49.725Z,39.33
2022-08-28T13:21:58.462Z,38.36
2022-08-28T13:23:24.488Z,38.36
2022-08-28T13:24:26.546Z,38.72
2022-08-28T13:25:36.736Z,39.45
2022-08-28T13:26:41.261Z,39.45
2022-08-28T13:27:54.674Z,40.50
2022-08-28T13:29:02.239Z,40.42
2022-08-28T13:30:18.510Z,40.81
2022-08-28T13:31:35.630Z,41.01
2022-08-28T13:32:42.906Z,39.99
2022-08-28T13:34:06.184Z,39.25
2022-08-28T13:35:24.039Z,40.28
2022-08-28T13:36:30.212Z,40.61
2022-08-28T13:37:47.486Z,40.49
2022-08-28T13:38:54.355Z,40.52
2022-08-28T13:40:30.249Z,40.65
2022-08-28T13:44:04.153Z,40.67
2022-08-28T13:45:11.941Z,39.77
2022-08-28T13:46:23.998Z,39.77
2022-08-28T13:48:39.631Z,41.24
2022-08-28T13:49:07.983Z,41.24
2022-08-28T13:49:53.571Z,41.54
2022-08-28T13:51:10.648Z,41.81
2022-08-28T13:52:24.930Z,42.05
2022-08-28T13:53:25.875Z,42.05
2022-08-28T13:54:32.684Z,41.48
2022-08-28T13:55:40.546Z,41.41
2022-08-28T13:57:36.319Z,41.41
2022-08-28T13:58:05.485Z,42.34
2022-08-28T13:59:01.529Z,41.05
2022-08-28T14:00:08.978Z,41.05
2022-08-28T14:01:13.336Z,41.01
2022-08-28T14:02:19.067Z,40.91
2022-08-28T14:03:24.742Z,42.15
2022-08-28T14:04:33.293Z,42.15
2022-08-28T14:05:37.397Z,42.62
2022-08-28T14:06:47.497Z,42.62
2022-08-28T14:09:18.626Z,41.67
2022-08-28T14:11:33.628Z,41.91
2022-08-28T14:12:47.199Z,41.98
2022-08-28T14:13:47.161Z,41.67
2022-08-28T14:14:07.250Z,42.25
2022-08-28T14:15:17.474Z,42.21
2022-08-28T14:19:06.350Z,41.87
2022-08-28T14:20:17.912Z,42.04
2022-08-28T14:22:55.107Z,42.33
2022-08-28T14:24:01.500Z,42.84
2022-08-28T14:25:07.578Z,42.84
2022-08-28T14:26:14.948Z,43.02
2022-08-28T14:27:19.142Z,43.22
2022-08-28T14:28:23.119Z,43.49
2022-08-28T14:29:27.146Z,44.01
2022-08-28T14:30:31.400Z,44.45
2022-08-28T14:31:37.155Z,44.45
2022-08-28T14:32:42.767Z,45.33
2022-08-28T14:33:46.714Z,45.20
2022-08-28T14:34:52.356Z,45.28
2022-08-28T14:35:56.357Z,45.59
2022-08-28T14:37:00.740Z,46.43
2022-08-28T14:38:06.768Z,46.42
2022-08-28T14:40:21.090Z,45.63
2022-08-28T14:41:25.937Z,46.04
2022-08-28T14:42:30.053Z,45.85
2022-08-28T14:43:34.094Z,45.79
2022-08-28T14:44:39.578Z,45.67
2022-08-28T14:45:49.070Z,45.92
2022-08-28T14:46:56.966Z,46.17
2022-08-28T14:48:04.162Z,46.83
2022-08-28T14:49:17.139Z,46.30
2022-08-28T14:50:19.939Z,46.00
2022-08-28T14:51:29.354Z,45.88
2022-08-28T14:52:30.128Z,45.65
2022-08-28T14:53:34.153Z,46.43
2022-08-28T14:54:41.714Z,46.55
2022-08-28T14:55:51.411Z,46.47
2022-08-28T14:56:57.129Z,45.87
2022-08-28T14:58:01.104Z,45.87
2022-08-28T14:59:07.191Z,46.39
2022-08-28T15:00:16.257Z,46.29
2022-08-28T15:01:26.811Z,46.29
2022-08-28T15:02:32.301Z,46.62
2022-08-28T15:03:36.498Z,45.91
2022-08-28T15:04:41.861Z,46.36
2022-08-28T15:05:46.300Z,46.54
2022-08-28T15:06:52.553Z,47.60
2022-08-28T15:07:56.606Z,47.55
2022-08-28T15:09:02.165Z,47.55
2022-08-28T15:10:06.619Z,48.77
2022-08-28T15:11:18.330Z,49.53